createdAt,value
2018-02-22T00:01:08.857Z,9.00
2018-02-22T00:03:37.544Z,9.20
2018-02-22T00:06:06.435Z,5.50
2018-02-22T00:08:35.515Z,4.63
2018-02-22T00:11:05.037Z,7.73
2018-02-22T00:13:34.438Z,4.83
2018-02-22T00:16:04.410Z,7.30
2018-02-22T00:18:33.968Z,8.47
2018-02-22T00:21:02.692Z,7.60
2018-02-22T00:23:32.250Z,9.70
2018-02-22T00:26:01.973Z,6.07
2018-02-22T00:28:30.652Z,8.13
2018-02-22T00:30:59.748Z,10.97
2018-02-22T00:33:28.375Z,8.90
2018-02-22T00:35:57.536Z,7.37
2018-02-22T00:38:27.253Z,8.30
2018-02-22T00:40:55.940Z,11.13
2018-02-22T00:43:25.436Z,9.50
2018-02-22T00:45:55.183Z,9.27
2018-02-22T00:48:24.648Z,5.80
2018-02-22T00:50:53.274Z,10.77
2018-02-22T00:53:23.150Z,8.80
2018-02-22T00:55:51.838Z,7.30
2018-02-22T00:58:21.377Z,6.53
2018-02-22T01:00:50.130Z,9.83
2018-02-22T01:03:19.430Z,9.27
2018-02-22T01:05:48.940Z,8.00
2018-02-22T01:08:19.279Z,12.00
2018-02-22T01:10:49.585Z,10.43
2018-02-22T01:13:18.271Z,13.10
2018-02-22T01:15:46.957Z,12.93
2018-02-22T01:18:16.055Z,11.07
2018-02-22T01:20:45.730Z,14.87
2018-02-22T01:23:15.165Z,11.80
2018-02-22T01:25:44.363Z,11.73
2018-02-22T01:28:13.766Z,11.00
2018-02-22T01:30:43.476Z,11.30
2018-02-22T01:33:12.161Z,9.77
2018-02-22T01:35:41.974Z,25.53
2018-02-22T01:38:11.585Z,10.87
2018-02-22T01:40:41.190Z,9.40
2018-02-22T01:43:10.595Z,7.63
2018-02-22T01:45:39.281Z,13.33
2018-02-22T01:48:07.965Z,10.80
2018-02-22T01:50:37.168Z,7.87
2018-02-22T01:53:05.903Z,14.53
2018-02-22T01:55:34.739Z,18.30
2018-02-22T01:58:03.426Z,17.20
2018-02-22T02:00:32.523Z,10.77
2018-02-22T02:03:01.942Z,8.67
2018-02-22T02:05:31.024Z,11.53
2018-02-22T02:08:00.120Z,6.90
2018-02-22T02:10:28.909Z,7.73
2018-02-22T02:12:57.595Z,7.03
2018-02-22T02:15:27.205Z,9.50
2018-02-22T02:17:56.295Z,9.23
2018-02-22T02:20:25.186Z,6.17
2018-02-22T02:22:53.978Z,5.60
2018-02-22T02:25:23.483Z,8.33
2018-02-22T02:27:57.802Z,8.27
2018-02-22T02:30:26.897Z,6.87
2018-02-22T02:32:56.279Z,9.27
2018-02-22T02:35:26.050Z,9.97
2018-02-22T02:37:55.108Z,8.97
2018-02-22T02:40:23.794Z,7.83
2018-02-22T02:42:52.477Z,10.60
2018-02-22T02:45:21.982Z,10.43
2018-02-22T02:47:51.132Z,13.67
2018-02-22T02:50:20.174Z,6.13
2018-02-22T02:52:49.681Z,9.80
2018-02-22T02:55:18.367Z,6.27
2018-02-22T02:57:48.689Z,10.33
2018-02-22T03:00:18.205Z,6.50
2018-02-22T03:02:47.393Z,8.50
2018-02-22T03:05:16.693Z,13.40
2018-02-22T03:07:45.381Z,7.10
2018-02-22T03:10:14.990Z,13.00
2018-02-22T03:12:43.679Z,7.70
2018-02-22T03:15:13.078Z,5.40
2018-02-22T03:17:42.624Z,6.40
2018-02-22T03:20:12.192Z,6.17
2018-02-22T03:22:41.286Z,16.23
2018-02-22T03:25:10.484Z,8.70
2018-02-22T03:27:40.094Z,7.20
2018-02-22T03:30:08.780Z,6.53
2018-02-22T03:32:39.002Z,5.67
2018-02-22T03:35:09.228Z,7.33
2018-02-22T03:37:37.852Z,11.63
2018-02-22T03:40:07.624Z,8.67
2018-02-22T03:42:36.661Z,8.90
2018-02-22T03:45:05.811Z,7.73
2018-02-22T03:47:34.603Z,9.90
2018-02-22T03:50:03.431Z,9.50
2018-02-22T03:52:32.396Z,9.20
2018-02-22T03:55:02.639Z,9.10
2018-02-22T03:57:31.906Z,6.27
2018-02-22T04:00:02.126Z,11.03
2018-02-22T04:02:31.122Z,13.13
2018-02-22T04:05:00.319Z,10.20
2018-02-22T04:07:29.622Z,9.47
2018-02-22T04:09:58.715Z,5.70
2018-02-22T04:12:27.403Z,21.27
2018-02-22T04:14:56.090Z,9.33
2018-02-22T04:17:25.187Z,6.53
2018-02-22T04:19:53.868Z,5.10
2018-02-22T04:22:24.194Z,5.83
2018-02-22T04:24:52.879Z,6.53
2018-02-22T04:27:21.975Z,5.77
2018-02-22T04:29:51.584Z,7.13
2018-02-22T04:32:20.473Z,10.77
2018-02-22T04:34:49.162Z,6.97
2018-02-22T04:37:19.385Z,4.83
2018-02-22T04:39:48.513Z,7.63
2018-02-22T04:42:17.579Z,8.00
2018-02-22T04:44:47.080Z,4.70
2018-02-22T04:47:16.590Z,5.83
2018-02-22T04:49:45.786Z,10.03
2018-02-22T04:52:14.574Z,9.40
2018-02-22T04:54:43.263Z,5.13
2018-02-22T04:57:12.562Z,4.13
2018-02-22T04:59:42.373Z,9.10
2018-02-22T05:02:12.391Z,7.70
2018-02-22T05:04:41.080Z,7.87
2018-02-22T05:07:10.276Z,6.20
2018-02-22T05:09:39.372Z,7.90
2018-02-22T05:12:09.904Z,7.00
2018-02-22T05:14:38.589Z,6.83
2018-02-22T05:17:08.149Z,5.13
2018-02-22T05:19:37.292Z,17.03
2018-02-22T05:22:06.391Z,6.93
2018-02-22T05:24:36.005Z,7.20
2018-02-22T05:27:05.104Z,8.20
2018-02-22T05:29:33.880Z,5.20
2018-02-22T05:32:02.566Z,12.60
2018-02-22T05:34:32.014Z,6.30
2018-02-22T05:37:01.277Z,7.83
2018-02-22T05:39:30.567Z,10.30
2018-02-22T05:41:59.868Z,9.43
2018-02-22T05:44:29.373Z,10.63
2018-02-22T05:46:58.276Z,9.17
2018-02-22T05:49:28.077Z,10.90
2018-02-22T05:51:57.538Z,6.50
2018-02-22T05:54:26.986Z,13.00
2018-02-22T05:56:56.606Z,8.20
2018-02-22T05:59:25.595Z,15.60
2018-02-22T06:01:54.689Z,13.93
2018-02-22T06:04:24.300Z,12.50
2018-02-22T06:06:53.804Z,6.00
2018-02-22T06:09:22.899Z,6.13
2018-02-22T06:11:51.791Z,8.50
2018-02-22T06:14:21.293Z,8.90
2018-02-22T06:16:50.619Z,12.30
2018-02-22T06:19:20.161Z,10.73
2018-02-22T06:21:49.235Z,12.33
2018-02-22T06:24:18.910Z,9.83
2018-02-22T06:26:49.133Z,9.97
2018-02-22T06:29:18.219Z,14.70
2018-02-22T06:31:48.037Z,20.63
2018-02-22T06:34:17.543Z,10.07
2018-02-22T06:36:46.849Z,11.20
2018-02-22T06:39:16.860Z,14.83
2018-02-22T06:41:45.548Z,11.00
2018-02-22T06:44:15.473Z,10.00
2018-02-22T06:46:44.968Z,12.03
2018-02-22T06:49:15.739Z,11.43
2018-02-22T06:51:44.895Z,11.00
2018-02-22T06:54:15.118Z,8.93
2018-02-22T06:56:44.624Z,10.33
2018-02-22T06:59:15.050Z,18.23
2018-02-22T07:01:44.352Z,9.83
2018-02-22T07:04:14.784Z,17.23
2018-02-22T07:06:44.285Z,9.40
2018-02-22T07:09:15.220Z,8.70
2018-02-22T07:11:44.462Z,14.27
2018-02-22T07:14:14.850Z,7.87
2018-02-22T07:16:43.534Z,9.73
2018-02-22T07:19:12.628Z,10.90
2018-02-22T07:21:41.928Z,14.13
2018-02-22T07:24:12.152Z,10.23
2018-02-22T07:26:41.662Z,10.43
2018-02-22T07:29:11.877Z,8.07
2018-02-22T07:31:41.183Z,12.40
2018-02-22T07:34:10.791Z,15.23
2018-02-22T07:36:40.393Z,7.33
2018-02-22T07:39:10.104Z,7.00
2018-02-22T07:41:39.609Z,7.93
2018-02-22T07:44:08.865Z,10.27
2018-02-22T07:46:37.538Z,9.03
2018-02-22T07:49:06.697Z,9.20
2018-02-22T07:51:36.197Z,6.33
2018-02-22T07:54:04.887Z,5.70
2018-02-22T07:56:34.390Z,7.50
2018-02-22T07:59:04.625Z,15.30
2018-02-22T08:01:34.117Z,7.90
2018-02-22T08:04:04.444Z,6.70
2018-02-22T08:06:33.538Z,6.80
2018-02-22T08:09:03.497Z,4.60
2018-02-22T08:11:32.957Z,7.53
2018-02-22T08:14:02.361Z,6.33
2018-02-22T08:16:31.052Z,5.47
2018-02-22T08:19:01.273Z,6.60
2018-02-22T08:21:30.779Z,8.27
2018-02-22T08:23:59.449Z,7.97
2018-02-22T08:26:28.967Z,8.27
2018-02-22T08:28:59.290Z,13.23
2018-02-22T08:31:29.209Z,9.10
2018-02-22T08:33:59.009Z,5.33
2018-02-22T08:36:28.610Z,4.83
2018-02-22T08:38:58.142Z,9.57
2018-02-22T08:41:26.820Z,7.17
2018-02-22T08:43:55.915Z,10.13
2018-02-22T08:46:24.743Z,11.00
2018-02-22T08:48:54.974Z,7.93
2018-02-22T08:51:23.714Z,7.03
2018-02-22T08:53:54.039Z,4.93
2018-02-22T08:56:22.725Z,9.40
2018-02-22T08:58:52.846Z,5.50
2018-02-22T09:01:22.351Z,7.10
2018-02-22T09:03:51.039Z,6.97
2018-02-22T09:06:20.952Z,9.87
2018-02-22T09:08:50.560Z,8.50
2018-02-22T09:11:19.658Z,6.27
2018-02-22T09:13:49.776Z,11.13
2018-02-22T09:16:19.279Z,16.57
2018-02-22T09:18:48.724Z,10.80
2018-02-22T09:21:17.475Z,6.70
2018-02-22T09:23:46.976Z,9.33
2018-02-22T09:26:15.880Z,9.47
2018-02-22T09:28:45.068Z,12.17
2018-02-22T09:31:14.676Z,10.53
2018-02-22T09:33:44.184Z,10.40
2018-02-22T09:36:13.687Z,9.10
2018-02-22T09:38:43.142Z,5.47
2018-02-22T09:41:12.290Z,13.30
2018-02-22T09:43:40.982Z,12.32
2018-02-22T09:46:15.596Z,8.67
2018-02-22T09:48:45.204Z,17.73
2018-02-22T09:51:14.812Z,24.13
2018-02-22T09:53:43.752Z,7.93
2018-02-22T09:56:13.311Z,9.73
2018-02-22T09:58:43.573Z,7.60
2018-02-22T10:01:12.838Z,7.93
2018-02-22T10:03:42.341Z,12.60
2018-02-22T10:06:14.035Z,8.53
2018-02-22T10:08:43.807Z,12.53
2018-02-22T10:11:12.499Z,9.23
2018-02-22T10:13:42.510Z,8.63
2018-02-22T10:16:11.915Z,10.57
2018-02-22T10:18:41.058Z,11.23
2018-02-22T10:21:10.208Z,20.80
2018-02-22T10:23:39.861Z,10.57
2018-02-22T10:26:09.427Z,9.90
2018-02-22T10:28:39.444Z,9.47
2018-02-22T10:31:08.950Z,9.03
2018-02-22T10:33:38.054Z,16.60
2018-02-22T10:36:08.169Z,11.50
2018-02-22T10:38:37.358Z,12.40
2018-02-22T10:41:06.869Z,7.03
2018-02-22T10:43:36.168Z,10.20
2018-02-22T10:46:04.853Z,15.70
2018-02-22T10:48:33.951Z,13.83
2018-02-22T10:51:03.147Z,19.90
2018-02-22T10:53:33.062Z,9.73
2018-02-22T10:56:03.588Z,11.90
2018-02-22T10:58:33.916Z,14.70
2018-02-22T11:01:08.748Z,16.00
2018-02-22T11:03:38.359Z,13.20
2018-02-22T11:06:08.580Z,11.07
2018-02-22T11:08:37.985Z,12.00
2018-02-22T11:11:07.081Z,9.00
2018-02-22T11:13:36.582Z,16.90
2018-02-22T11:16:06.656Z,15.57
2018-02-22T11:18:35.285Z,13.00
2018-02-22T11:21:04.485Z,9.33
2018-02-22T11:23:35.483Z,14.50
2018-02-22T11:26:04.832Z,11.50
2018-02-22T11:28:34.741Z,16.13
2018-02-22T11:31:04.400Z,14.00
2018-02-22T11:33:34.781Z,12.13
2018-02-22T11:36:04.385Z,11.80
2018-02-22T11:38:33.284Z,15.40
2018-02-22T11:41:02.573Z,10.80
2018-02-22T11:43:32.182Z,13.07
2018-02-22T11:46:01.790Z,11.43
2018-02-22T11:48:31.346Z,10.17
2018-02-22T11:51:01.010Z,11.90
2018-02-22T11:53:30.933Z,13.17
2018-02-22T11:56:00.019Z,14.50
2018-02-22T11:58:29.319Z,16.67
2018-02-22T12:00:58.931Z,17.10
2018-02-22T12:03:28.429Z,17.67
2018-02-22T12:05:58.762Z,18.93
2018-02-22T12:08:28.673Z,11.03
2018-02-22T12:10:58.176Z,14.23
2018-02-22T12:13:28.281Z,12.10
2018-02-22T12:15:58.165Z,16.90
2018-02-22T12:18:28.433Z,22.57
2018-02-22T12:20:58.347Z,12.80
2018-02-22T12:23:28.468Z,19.10
2018-02-22T12:25:57.976Z,16.33
2018-02-22T12:28:27.173Z,15.87
2018-02-22T12:30:56.268Z,18.23
2018-02-22T12:33:25.874Z,12.10
2018-02-22T12:35:55.787Z,16.30
2018-02-22T12:38:25.708Z,18.10
2018-02-22T12:40:55.311Z,15.73
2018-02-22T12:43:25.231Z,15.80
2018-02-22T12:45:55.550Z,11.10
2018-02-22T12:48:25.058Z,15.03
2018-02-22T12:50:54.668Z,16.07
2018-02-22T12:53:24.783Z,12.13
2018-02-22T12:55:54.084Z,15.20
2018-02-22T12:58:24.216Z,22.63
2018-02-22T13:00:54.426Z,15.70
2018-02-22T13:03:24.498Z,18.17
2018-02-22T13:05:54.776Z,18.07
2018-02-22T13:08:24.990Z,14.73
2018-02-22T13:10:54.499Z,16.23
2018-02-22T13:13:24.214Z,13.27
2018-02-22T13:15:54.530Z,10.73
2018-02-22T13:18:24.037Z,18.20
2018-02-22T13:20:53.133Z,12.80
2018-02-22T13:23:23.456Z,9.23
2018-02-22T13:25:53.783Z,18.90
2018-02-22T13:28:23.801Z,16.73
2018-02-22T13:30:53.306Z,21.40
2018-02-22T13:33:34.898Z,16.10
2018-02-22T13:36:04.347Z,17.80
2018-02-22T13:38:45.990Z,15.17
2018-02-22T13:41:15.292Z,15.00
2018-02-22T13:43:44.797Z,11.17
2018-02-22T13:46:14.299Z,11.23
2018-02-22T13:48:55.280Z,18.03
2018-02-22T13:51:24.676Z,14.70
2018-02-22T13:53:53.774Z,17.87
2018-02-22T13:56:35.102Z,14.43
2018-02-22T13:59:04.663Z,11.87
2018-02-22T14:01:45.638Z,12.53
2018-02-22T14:04:16.062Z,15.13
2018-02-22T14:06:45.577Z,26.70
2018-02-22T14:09:15.891Z,19.20
2018-02-22T14:11:44.989Z,17.80
2018-02-22T14:14:14.601Z,13.03
2018-02-22T14:16:44.512Z,16.63
2018-02-22T14:19:14.837Z,13.27
2018-02-22T14:21:44.753Z,17.83
2018-02-22T14:24:14.973Z,12.50
2018-02-22T14:26:44.488Z,21.37
2018-02-22T14:29:14.495Z,10.87
2018-02-22T14:31:44.104Z,15.73
2018-02-22T14:34:13.611Z,15.27
2018-02-22T14:36:43.850Z,16.90
2018-02-22T14:39:13.440Z,13.37
2018-02-22T14:41:42.534Z,17.10
2018-02-22T14:44:12.757Z,21.90
2018-02-22T14:46:42.876Z,19.77
2018-02-22T14:49:12.391Z,17.03
2018-02-22T14:51:42.304Z,17.70
2018-02-22T14:54:10.985Z,15.53
2018-02-22T14:56:43.990Z,18.83
2018-02-22T14:59:13.987Z,14.97
2018-02-22T15:01:43.498Z,14.20
2018-02-22T15:04:12.793Z,11.77
2018-02-22T15:06:42.335Z,11.80
2018-02-22T15:09:12.656Z,16.93
2018-02-22T15:11:42.131Z,17.97
2018-02-22T15:14:12.333Z,11.80
2018-02-22T15:16:42.986Z,17.83
2018-02-22T15:19:12.597Z,19.93
2018-02-22T15:21:41.686Z,12.93
2018-02-22T15:24:12.165Z,18.73
2018-02-22T15:26:41.312Z,11.70
2018-02-22T15:29:10.407Z,15.70
2018-02-22T15:31:40.018Z,12.35
2018-02-22T15:34:10.341Z,12.13
2018-02-22T15:36:39.849Z,13.80
2018-02-22T15:39:09.402Z,16.00
2018-02-22T15:41:38.873Z,16.50
2018-02-22T15:44:07.895Z,15.20
2018-02-22T15:46:38.072Z,10.90
2018-02-22T15:49:08.194Z,10.90
2018-02-22T15:51:37.906Z,9.80
2018-02-22T15:54:08.234Z,10.93
2018-02-22T15:56:38.536Z,11.13
2018-02-22T15:59:08.166Z,18.57
2018-02-22T16:01:38.662Z,10.03
2018-02-22T16:04:08.815Z,12.03
2018-02-22T16:06:38.329Z,12.60
2018-02-22T16:09:08.090Z,9.60
2018-02-22T16:11:38.449Z,17.67
2018-02-22T16:14:07.940Z,10.97
2018-02-22T16:16:37.673Z,11.57
2018-02-22T16:19:08.398Z,11.13
2018-02-22T16:21:37.931Z,12.13
2018-02-22T16:24:07.845Z,7.97
2018-02-22T16:26:36.981Z,10.20
2018-02-22T16:29:07.651Z,9.33
2018-02-22T16:31:37.975Z,15.60
2018-02-22T16:34:07.993Z,11.17
2018-02-22T16:36:36.898Z,13.30
2018-02-22T16:39:06.496Z,8.80
2018-02-22T16:41:36.170Z,12.90
2018-02-22T16:44:06.302Z,12.83
2018-02-22T16:46:36.654Z,11.33
2018-02-22T16:49:05.947Z,12.40
2018-02-22T16:51:35.773Z,14.37
2018-02-22T16:54:06.598Z,11.97
2018-02-22T16:56:35.797Z,10.27
2018-02-22T16:59:06.008Z,19.20
2018-02-22T17:01:35.852Z,15.43
2018-02-22T17:04:05.756Z,10.17
2018-02-22T17:06:36.788Z,12.40
2018-02-22T17:09:06.909Z,9.60
2018-02-22T17:11:37.033Z,14.07
2018-02-22T17:14:07.354Z,8.43
2018-02-22T17:16:37.634Z,9.17
2018-02-22T17:19:07.268Z,8.07
2018-02-22T17:21:37.665Z,8.93
2018-02-22T17:24:08.050Z,9.77
2018-02-22T17:26:44.100Z,8.13
2018-02-22T17:29:19.743Z,14.30
2018-02-22T17:31:55.229Z,11.67
2018-02-22T17:34:25.920Z,9.40
2018-02-22T17:36:55.708Z,11.93
2018-02-22T17:39:25.904Z,11.13
2018-02-22T17:41:56.090Z,8.70
2018-02-22T17:44:25.764Z,17.23
2018-02-22T17:46:55.914Z,12.17
2018-02-22T17:49:25.414Z,16.67
2018-02-22T17:51:54.944Z,12.60
2018-02-22T17:54:26.794Z,16.70
2018-02-22T17:56:55.673Z,14.97
2018-02-22T17:59:25.726Z,14.63
2018-02-22T18:01:55.937Z,14.73
2018-02-22T18:04:25.144Z,20.42
2018-02-22T18:06:57.177Z,24.00
2018-02-22T18:09:26.416Z,26.97
2018-02-22T18:11:56.819Z,18.37
2018-02-22T18:14:26.943Z,23.57
2018-02-22T18:16:57.038Z,20.17
2018-02-22T18:19:26.853Z,19.27
2018-02-22T18:21:56.562Z,22.70
2018-02-22T18:24:26.377Z,18.80
2018-02-22T18:26:56.243Z,17.00
2018-02-22T18:29:26.918Z,23.43
2018-02-22T18:31:56.375Z,17.90
2018-02-22T18:34:25.749Z,21.23
2018-02-22T18:36:55.028Z,15.33
2018-02-22T18:39:28.016Z,22.00
2018-02-22T18:45:10.854Z,21.17
2018-02-22T18:47:39.688Z,17.63
2018-02-22T18:50:09.863Z,19.23
2018-02-22T18:52:39.165Z,19.90
2018-02-22T18:55:09.145Z,16.80
2018-02-22T18:57:39.003Z,17.10
2018-02-22T19:00:08.706Z,18.03
2018-02-22T19:02:38.824Z,20.20
2018-02-22T19:05:08.741Z,23.50
2018-02-22T19:07:38.185Z,30.87
2018-02-22T19:10:08.361Z,20.73
2018-02-22T19:12:37.458Z,17.87
2018-02-22T19:15:07.280Z,24.43
2018-02-22T19:17:36.570Z,20.47
2018-02-22T19:20:06.076Z,27.43
2018-02-22T19:22:35.583Z,27.73
2018-02-22T19:25:04.473Z,26.80
2018-02-22T19:27:33.977Z,25.93
2018-02-22T19:30:03.484Z,24.90
2018-02-22T19:32:32.171Z,26.13
2018-02-22T19:35:02.086Z,21.50
2018-02-22T19:37:30.772Z,27.83
2018-02-22T19:40:00.685Z,25.00
2018-02-22T19:42:30.195Z,27.43
2018-02-22T19:45:00.309Z,26.07
2018-02-22T19:47:29.817Z,31.97
2018-02-22T19:49:59.334Z,26.07
2018-02-22T19:52:28.415Z,32.20
2018-02-22T19:54:57.921Z,26.57
2018-02-22T19:57:29.067Z,37.03
2018-02-22T19:59:58.162Z,25.63
2018-02-22T20:02:27.667Z,38.13
2018-02-22T20:04:56.771Z,24.80
2018-02-22T20:07:26.268Z,24.80
2018-02-22T20:09:55.364Z,33.07
2018-02-22T20:12:24.460Z,32.80
2018-02-22T20:14:53.967Z,25.37
2018-02-22T20:17:23.093Z,28.07
2018-02-22T20:19:53.079Z,21.97
2018-02-22T20:22:23.410Z,118.83
2018-02-22T20:24:52.916Z,28.20
2018-02-22T20:27:22.419Z,27.03
2018-02-22T20:29:51.101Z,35.00
2018-02-22T20:32:20.149Z,25.27
2018-02-22T20:34:50.420Z,31.50
2018-02-22T20:37:20.129Z,25.40
2018-02-22T20:39:49.846Z,28.27
2018-02-22T20:42:19.344Z,39.13
2018-02-22T20:44:48.760Z,24.87
2018-02-22T20:47:18.160Z,28.33
2018-02-22T20:49:47.041Z,28.17
2018-02-22T20:52:16.806Z,31.43
2018-02-22T20:54:48.120Z,24.00
2018-02-22T20:57:17.757Z,23.17
2018-02-22T20:59:46.908Z,30.37
2018-02-22T21:02:16.926Z,31.70
2018-02-22T21:04:46.116Z,25.20
2018-02-22T21:07:16.459Z,27.13
2018-02-22T21:09:46.154Z,29.23
2018-02-22T21:12:15.871Z,27.57
2018-02-22T21:14:45.065Z,38.70
2018-02-22T21:20:12.850Z,19.30
2018-02-22T21:25:39.714Z,19.77
2018-02-22T21:28:09.219Z,24.67
2018-02-22T21:30:38.934Z,28.03
2018-02-22T21:33:07.619Z,24.07
2018-02-22T21:35:37.003Z,20.77
2018-02-22T21:38:05.811Z,28.13
2018-02-22T21:40:35.325Z,21.27
2018-02-22T21:43:05.644Z,23.13
2018-02-22T21:45:34.962Z,22.17
2018-02-22T21:48:04.259Z,26.23
2018-02-22T21:50:34.564Z,20.90
2018-02-22T21:53:04.073Z,21.30
2018-02-22T21:55:33.577Z,31.17
2018-02-22T21:58:03.084Z,27.63
2018-02-22T22:00:32.381Z,30.47
2018-02-22T22:03:01.273Z,21.17
2018-02-22T22:05:31.804Z,28.63
2018-02-22T22:08:02.254Z,22.77
2018-02-22T22:10:31.845Z,26.70
2018-02-22T22:13:02.267Z,27.93
2018-02-22T22:15:32.587Z,36.37
2018-02-22T22:18:02.305Z,29.13
2018-02-22T22:20:31.804Z,18.70
2018-02-22T22:23:00.902Z,19.73
2018-02-22T22:25:31.778Z,25.90
2018-02-22T22:28:00.859Z,17.30
2018-02-22T22:30:30.851Z,19.80
2018-02-22T22:33:00.048Z,21.00
2018-02-22T22:35:31.190Z,26.00
2018-02-22T22:38:00.287Z,31.23
2018-02-22T22:40:31.431Z,27.67
2018-02-22T22:43:01.348Z,27.80
2018-02-22T22:45:31.874Z,27.90
2018-02-22T22:48:00.563Z,29.50
2018-02-22T22:50:30.240Z,28.13
2018-02-22T22:52:59.367Z,24.63
2018-02-22T22:55:28.462Z,34.80
2018-02-22T22:57:57.971Z,31.83
2018-02-22T23:00:27.478Z,26.40
2018-02-22T23:02:57.196Z,35.00
2018-02-22T23:05:26.695Z,31.10
2018-02-22T23:07:55.994Z,32.53
2018-02-22T23:10:25.660Z,33.30
2018-02-22T23:12:55.004Z,28.00
2018-02-22T23:15:23.703Z,29.80
2018-02-22T23:17:53.197Z,24.50
2018-02-22T23:20:22.084Z,25.83
2018-02-22T23:22:50.983Z,28.23
2018-02-22T23:25:20.073Z,35.17
2018-02-22T23:27:48.967Z,36.93
2018-02-22T23:30:18.266Z,24.47
2018-02-22T23:32:46.955Z,25.77
2018-02-22T23:35:16.454Z,25.97
2018-02-22T23:37:45.551Z,21.47
2018-02-22T23:43:17.534Z,28.43
2018-02-22T23:45:47.141Z,26.27
2018-02-22T23:48:17.764Z,25.53
2018-02-22T23:50:47.282Z,38.60
2018-02-22T23:53:16.885Z,24.63
2018-02-22T23:55:45.780Z,22.10
2018-02-22T23:58:15.284Z,33.60
